Ana Sayfa
METAR-TAF:

METAR-TAF

Havaalanları :

Çiğli Hava Üssü

İzmir, Türkiye

Enlem: 38-30N, Boylam: 027-01E, yükseklik: 5 m

Güncel hava durumu gözlemi

Rapor saat 07:10 UTC de 15 saat ve 55 dakika önce yapıldı.
Rüzgar doğu/güneydoğudan 4 kt, doğu ve güney/güneydoğu arasında değişken
Sıcaklık 22°C
Nem 78%
Basınç 1018 hPa
Görüş mesafesi: 6000 m

METAR: LTBL 170710Z 12004KT 090V150 6000 NSC 22/18 Q1018 NOSIG RMK RWY17 11003KT 020V170

Saat: 02:05 (23:05 UTC)

Tahmin

Rapor saat 19:40 UTC de 3 saat ve 25 dakika önce yapıldı.
Ayın 17'si saat 21 UTC'den ayın 18'si saat 06 UTC'ye kadar geçerli Tahmin
Rüzgar değişken yönden 2 kt
Görüş mesafesi: 6000 m
Dönüşüyor
ayın 17'si saat 22 UTC'den ayın 17'si saat 24 UTC'ye kadar
Görüş mesafesi: 4000 m
Pus
Olasılık 30% :
Geçici
ayın 18'si saat 04 UTC'den ayın 18'si saat 06 UTC'ye kadar
Görüş mesafesi: 2000 m

TAF: LTBL 171940Z 1721/1806 VRB02KT 6000 NSC BECMG 1722/1724 4000 BR PROB30 TEMPO 1804/1806 2000

4.000'den fazla havaalanı için hava durumu gözlemleri ve tahminleri (METAR ve TAF raporları).

Kullanılabilir istasyonlar harita üzerinde sarı ve kırmızı noktalarla gösterilir.

İstasyonun adını görmek için fareyi noktanın üzerinde gezdirin.

Sonrasında hava gözlem ve tahminlerini görmek için tıklayın.

Haritayı değiştirmek için: yaklaştırmak için siyah artı işaretli yeşil düğmeye ve uzaklaştırmak için de eksi işaretli düğmeye hızla tıklayın; bitişik haritalar için yeşil okları kullanın.


METAR-TAF: